createdAt,value
2022-10-17T00:02:23.549Z,100.00
2022-10-17T00:05:26.224Z,100.00
2022-10-17T00:08:28.769Z,98.92
2022-10-17T00:11:31.315Z,100.00
2022-10-17T00:14:34.599Z,100.00
2022-10-17T00:17:38.835Z,98.47
2022-10-17T00:20:41.357Z,100.00
2022-10-17T00:23:43.853Z,100.00
2022-10-17T00:26:46.325Z,98.95
2022-10-17T00:29:49.933Z,96.30
2022-10-17T00:32:53.862Z,96.94
2022-10-17T00:36:04.587Z,95.71
2022-10-17T00:39:07.208Z,97.05
2022-10-17T00:42:12.243Z,95.02
2022-10-17T00:45:22.946Z,95.11
2022-10-17T00:48:27.015Z,97.02
2022-10-17T00:51:38.088Z,99.76
2022-10-17T00:54:45.371Z,98.39
2022-10-17T00:57:48.228Z,95.50
2022-10-17T01:00:50.723Z,95.34
2022-10-17T01:03:54.583Z,96.49
2022-10-17T01:06:57.052Z,97.05
2022-10-17T01:09:59.791Z,97.29
2022-10-17T01:13:12.369Z,97.33
2022-10-17T01:16:19.902Z,98.04
2022-10-17T01:19:43.917Z,96.78
2022-10-17T01:22:50.584Z,97.01
2022-10-17T01:25:58.499Z,95.93
2022-10-17T01:29:30.484Z,95.04
2022-10-17T01:32:40.205Z,97.46
2022-10-17T01:35:49.256Z,97.79
2022-10-17T01:38:58.333Z,98.24
2022-10-17T01:42:08.942Z,96.11
2022-10-17T01:45:16.718Z,94.93
2022-10-17T01:48:24.965Z,92.29
2022-10-17T01:51:31.861Z,91.72
2022-10-17T01:54:40.856Z,91.36
2022-10-17T01:57:47.279Z,92.96
2022-10-17T02:00:51.543Z,93.57
2022-10-17T02:03:59.188Z,96.15
2022-10-17T02:07:07.343Z,95.00
2022-10-17T02:10:16.872Z,95.20
2022-10-17T02:13:26.466Z,93.73
2022-10-17T02:16:37.012Z,94.91
2022-10-17T02:19:51.404Z,94.57
2022-10-17T02:22:59.508Z,93.09
2022-10-17T02:26:14.279Z,94.03
2022-10-17T02:29:20.136Z,92.18
2022-10-17T02:32:29.251Z,94.67
2022-10-17T02:35:37.404Z,95.96
2022-10-17T02:38:41.757Z,96.64
2022-10-17T02:41:45.446Z,97.46
2022-10-17T02:44:48.688Z,97.77
2022-10-17T02:47:57.527Z,99.39
2022-10-17T02:51:08.595Z,99.90
2022-10-17T02:54:17.392Z,100.00
2022-10-17T02:57:26.186Z,99.29
2022-10-17T06:06:14.558Z,100.00
2022-10-17T06:09:17.056Z,100.00
2022-10-17T06:12:19.555Z,100.00
2022-10-17T06:15:22.013Z,100.00
2022-10-17T06:18:24.508Z,100.00
2022-10-17T06:21:29.282Z,100.00
2022-10-17T06:24:31.760Z,100.00
2022-10-17T06:27:34.240Z,99.72
2022-10-17T06:30:39.007Z,93.57
2022-10-17T06:33:41.908Z,91.85
2022-10-17T06:36:45.728Z,88.17
2022-10-17T06:39:48.228Z,87.47
2022-10-17T06:42:50.710Z,85.88
2022-10-17T06:45:53.202Z,85.22
2022-10-17T06:48:55.706Z,84.35
2022-10-17T06:51:59.512Z,82.89
2022-10-17T06:58:09.733Z,83.92
2022-10-17T07:01:14.076Z,82.30
2022-10-17T07:04:16.565Z,82.43
2022-10-17T07:07:20.399Z,82.57
2022-10-17T07:10:22.974Z,81.89
2022-10-17T07:13:26.064Z,85.39
2022-10-17T07:16:28.732Z,83.07
2022-10-17T07:19:31.305Z,90.36
2022-10-17T07:22:35.256Z,87.62
2022-10-17T07:25:40.163Z,86.46
2022-10-17T07:28:44.923Z,84.66
2022-10-17T07:31:48.800Z,83.55
2022-10-17T07:34:51.260Z,81.90
2022-10-17T07:37:55.075Z,81.40
2022-10-17T07:40:58.308Z,81.76
2022-10-17T07:44:00.771Z,79.17
2022-10-17T07:47:03.373Z,80.62
2022-10-17T07:50:06.665Z,79.97
2022-10-17T07:56:12.981Z,77.03
2022-10-17T07:59:15.559Z,76.86
2022-10-17T08:02:23.461Z,74.23
2022-10-17T08:05:26.040Z,72.60
2022-10-17T08:08:30.247Z,71.61
2022-10-17T08:11:32.772Z,66.97
2022-10-17T08:14:35.458Z,65.17
2022-10-17T08:17:39.255Z,61.90
2022-10-17T08:20:42.059Z,61.90
2022-10-17T08:23:46.011Z,59.88
2022-10-17T08:26:51.667Z,62.91
2022-10-17T08:29:54.732Z,66.32
2022-10-17T08:32:57.248Z,66.68
2022-10-17T08:36:00.391Z,65.25
2022-10-17T08:39:04.865Z,64.35
2022-10-17T08:42:20.417Z,63.09
2022-10-17T08:45:30.572Z,61.04
2022-10-17T08:48:42.631Z,59.89
2022-10-17T08:51:52.874Z,58.53
2022-10-17T08:54:56.848Z,59.42
2022-10-17T08:57:59.342Z,58.40
2022-10-17T09:01:09.144Z,58.91
2022-10-17T09:04:39.313Z,57.60
2022-10-17T09:07:49.859Z,58.09
2022-10-17T09:10:58.670Z,57.47
2022-10-17T09:14:10.275Z,56.85
2022-10-17T09:17:17.556Z,53.16
2022-10-17T09:20:23.161Z,53.03
2022-10-17T09:23:28.931Z,52.77
2022-10-17T09:26:32.847Z,53.24
2022-10-17T09:29:38.033Z,53.58
2022-10-17T09:32:44.074Z,52.64
2022-10-17T09:35:47.719Z,52.22
2022-10-17T09:38:53.708Z,52.19
2022-10-17T09:41:59.909Z,51.87
2022-10-17T09:45:14.725Z,51.28
2022-10-17T09:48:24.099Z,50.79
2022-10-17T09:51:27.470Z,50.98
2022-10-17T09:54:42.471Z,49.00
2022-10-17T09:58:01.338Z,47.81
2022-10-17T10:01:21.118Z,47.62
2022-10-17T10:04:30.205Z,49.56
2022-10-17T10:07:38.983Z,49.29
2022-10-17T10:10:43.159Z,48.64
2022-10-17T10:13:49.120Z,48.53
2022-10-17T10:16:54.468Z,47.50
2022-10-17T10:19:57.412Z,47.40
2022-10-17T10:23:17.345Z,46.60
2022-10-17T10:26:23.877Z,46.47
2022-10-17T10:29:32.229Z,45.57
2022-10-17T10:32:37.744Z,46.39
2022-10-17T10:35:40.606Z,47.80
2022-10-17T10:38:43.405Z,49.35
2022-10-17T10:41:49.703Z,50.51
2022-10-17T10:44:55.836Z,49.67
2022-10-17T10:48:00.671Z,49.67
2022-10-17T10:51:08.957Z,49.96
2022-10-17T10:54:17.546Z,49.90
2022-10-17T10:57:25.317Z,48.15
2022-10-17T11:00:33.167Z,49.58
2022-10-17T11:03:42.304Z,49.37
2022-10-17T11:06:46.923Z,49.23
2022-10-17T11:09:54.131Z,49.95
2022-10-17T11:13:05.048Z,48.17
2022-10-17T11:16:19.790Z,47.91
2022-10-17T11:19:26.684Z,48.02
2022-10-17T11:22:33.120Z,48.01
2022-10-17T11:25:37.939Z,48.61
2022-10-17T11:28:40.481Z,47.48
2022-10-17T11:31:53.962Z,47.08
2022-10-17T11:35:01.873Z,47.34
2022-10-17T11:38:12.231Z,45.63
2022-10-17T11:41:19.943Z,46.00
2022-10-17T11:44:27.746Z,46.01
2022-10-17T11:47:39.213Z,46.40
2022-10-17T11:54:15.204Z,47.27
2022-10-17T11:57:42.681Z,47.42
2022-10-17T12:00:56.056Z,47.41
2022-10-17T12:04:13.763Z,47.64
2022-10-17T12:07:23.287Z,47.60
2022-10-17T12:10:40.017Z,46.51
2022-10-17T12:13:51.832Z,47.16
2022-10-17T12:16:54.654Z,47.18
2022-10-17T12:20:27.354Z,47.38
2022-10-17T12:23:32.651Z,45.86
2022-10-17T12:26:35.141Z,45.88
2022-10-17T12:29:37.634Z,45.70
2022-10-17T12:33:05.560Z,43.81
2022-10-17T12:36:46.002Z,43.84
2022-10-17T12:39:50.347Z,43.61
2022-10-17T12:42:52.860Z,42.96
2022-10-17T12:45:56.435Z,43.82
2022-10-17T12:49:21.554Z,43.62
2022-10-17T12:52:26.689Z,43.28
2022-10-17T12:55:30.652Z,43.71
2022-10-17T12:58:35.000Z,43.38
2022-10-17T13:01:39.845Z,41.79
2022-10-17T13:04:42.510Z,45.07
2022-10-17T13:07:47.971Z,43.10
2022-10-17T13:10:54.613Z,49.24
2022-10-17T13:14:00.045Z,46.90
2022-10-17T13:17:04.224Z,44.72
2022-10-17T13:20:25.452Z,43.90
2022-10-17T13:23:34.689Z,43.60
2022-10-17T13:26:38.524Z,47.32
2022-10-17T13:29:45.698Z,44.73
2022-10-17T13:32:48.236Z,45.48
2022-10-17T13:36:05.925Z,47.78
2022-10-17T13:39:12.424Z,46.75
2022-10-17T13:42:24.843Z,47.46
2022-10-17T13:45:30.647Z,41.89
2022-10-17T13:48:36.217Z,41.74
2022-10-17T13:51:38.811Z,45.29
2022-10-17T13:54:42.604Z,47.14
2022-10-17T13:57:47.172Z,48.35
2022-10-17T14:00:50.797Z,43.35
2022-10-17T14:04:07.140Z,42.33
2022-10-17T14:07:25.499Z,43.04
2022-10-17T14:10:37.692Z,41.60
2022-10-17T14:13:42.125Z,42.03
2022-10-17T14:16:45.434Z,42.04
2022-10-17T14:20:06.577Z,43.14
2022-10-17T14:23:31.149Z,43.26
2022-10-17T14:26:37.260Z,43.25
2022-10-17T14:29:54.117Z,43.83
2022-10-17T14:32:58.988Z,44.04
2022-10-17T14:36:03.621Z,44.13
2022-10-17T14:39:13.430Z,44.22
2022-10-17T14:42:20.588Z,44.05
2022-10-17T14:45:28.053Z,45.35
2022-10-17T14:48:32.067Z,46.00
2022-10-17T14:51:44.765Z,50.54
2022-10-17T14:54:59.027Z,51.94
2022-10-17T14:58:02.090Z,52.43
2022-10-17T15:01:06.079Z,52.51
2022-10-17T15:04:10.737Z,51.69
2022-10-17T15:07:17.514Z,53.30
2022-10-17T15:10:33.903Z,53.40
2022-10-17T15:13:41.203Z,52.76
2022-10-17T15:16:48.555Z,52.26
2022-10-17T15:19:51.283Z,52.25
2022-10-17T15:22:53.786Z,50.00
2022-10-17T15:25:56.299Z,50.23
2022-10-17T15:28:59.088Z,49.44
2022-10-17T15:32:02.948Z,49.42
2022-10-17T15:35:06.025Z,51.82
2022-10-17T15:38:09.785Z,51.56
2022-10-17T15:41:12.551Z,50.77
2022-10-17T15:44:15.404Z,51.04
2022-10-17T15:47:25.035Z,51.51
2022-10-17T15:50:28.991Z,52.07
2022-10-17T15:53:31.464Z,51.40
2022-10-17T15:56:36.988Z,53.47
2022-10-17T15:59:39.499Z,51.96
2022-10-17T16:02:43.703Z,54.42
2022-10-17T16:05:46.187Z,51.94
2022-10-17T16:08:49.469Z,51.08
2022-10-17T16:11:51.956Z,56.21
2022-10-17T16:14:54.517Z,52.21
2022-10-17T16:18:01.652Z,56.51
2022-10-17T16:21:06.859Z,58.00
2022-10-17T16:24:11.269Z,58.38
2022-10-17T16:27:13.804Z,58.72
2022-10-17T16:30:16.693Z,60.26
2022-10-17T16:33:20.499Z,60.24
2022-10-17T16:36:23.518Z,62.31
2022-10-17T16:42:33.375Z,63.08
2022-10-17T16:45:37.173Z,62.35
2022-10-17T16:51:48.362Z,63.80
2022-10-17T16:54:50.841Z,64.38
2022-10-17T16:57:53.375Z,65.52
2022-10-17T17:00:55.894Z,62.67
2022-10-17T17:04:00.086Z,65.45
2022-10-17T17:07:02.563Z,67.32
2022-10-17T17:10:06.288Z,67.21
2022-10-17T17:13:08.741Z,68.28
2022-10-17T17:16:13.003Z,68.76
2022-10-17T17:19:17.751Z,67.75
2022-10-17T17:22:20.225Z,66.92
2022-10-17T17:25:23.346Z,66.53
2022-10-17T17:28:27.072Z,65.52
2022-10-17T17:31:32.668Z,64.94
2022-10-17T17:34:38.037Z,65.33
2022-10-17T17:37:40.560Z,65.64
2022-10-17T17:40:50.741Z,66.84
2022-10-17T17:43:53.770Z,66.82
2022-10-17T17:46:56.202Z,67.09
2022-10-17T17:50:00.308Z,66.51
2022-10-17T17:53:02.779Z,60.92
2022-10-17T17:56:07.428Z,65.43
2022-10-17T17:59:12.566Z,68.35
2022-10-17T18:02:15.446Z,63.09
2022-10-17T18:05:19.481Z,60.60
2022-10-17T18:08:21.998Z,62.07
2022-10-17T18:11:24.594Z,65.13
2022-10-17T18:14:27.044Z,65.24
2022-10-17T18:17:29.513Z,63.07
2022-10-17T18:20:33.427Z,66.01
2022-10-17T18:23:37.714Z,66.23
2022-10-17T18:26:40.189Z,64.53
2022-10-17T18:29:42.729Z,64.20
2022-10-17T18:32:45.173Z,66.70
2022-10-17T18:35:49.018Z,64.42
2022-10-17T18:38:51.462Z,65.62
2022-10-17T18:41:53.894Z,67.38
2022-10-17T18:44:56.315Z,67.28
2022-10-17T18:47:58.757Z,66.20
2022-10-17T18:51:05.166Z,66.39
2022-10-17T18:54:12.180Z,65.82
2022-10-17T18:57:14.643Z,66.09
2022-10-17T19:00:17.493Z,65.00
2022-10-17T19:03:19.984Z,66.63
2022-10-17T19:06:26.048Z,65.36
2022-10-17T19:09:28.503Z,64.80
2022-10-17T19:12:30.949Z,63.58
2022-10-17T19:15:33.505Z,63.81
2022-10-17T19:18:36.838Z,63.43
2022-10-17T19:21:41.020Z,65.30
2022-10-17T19:24:43.551Z,66.15
2022-10-17T19:27:46.051Z,61.75
2022-10-17T19:30:48.502Z,65.21
2022-10-17T19:33:52.748Z,67.13
2022-10-17T19:36:56.653Z,67.00
2022-10-17T19:39:59.119Z,64.63
2022-10-17T19:43:01.570Z,66.50
2022-10-17T19:46:06.497Z,62.23
2022-10-17T19:49:08.956Z,61.33
2022-10-17T19:52:12.712Z,60.80
2022-10-17T19:55:15.193Z,60.37
2022-10-17T19:58:18.106Z,59.97
2022-10-17T20:01:25.249Z,60.14
2022-10-17T20:04:27.826Z,61.95
2022-10-17T20:07:31.603Z,62.14
2022-10-17T20:10:34.079Z,61.72
2022-10-17T20:13:37.847Z,61.11
2022-10-17T20:16:40.311Z,60.74
2022-10-17T20:19:43.016Z,62.40
2022-10-17T20:22:47.140Z,62.57
2022-10-17T20:26:01.036Z,62.95
2022-10-17T20:29:13.696Z,64.96
2022-10-17T20:32:16.167Z,64.17
2022-10-17T20:35:18.834Z,67.58
2022-10-17T20:38:22.571Z,73.62
2022-10-17T20:41:26.176Z,73.60
2022-10-17T20:44:28.632Z,71.73
2022-10-17T20:47:46.107Z,68.60
2022-10-17T20:50:51.743Z,73.30
2022-10-17T20:57:04.931Z,74.92
2022-10-17T21:00:08.697Z,74.38
2022-10-17T21:03:11.140Z,75.68
2022-10-17T21:06:13.674Z,74.24
2022-10-17T21:09:17.490Z,74.03
2022-10-17T21:12:30.881Z,74.55
2022-10-17T21:15:42.460Z,70.14
2022-10-17T21:18:47.441Z,73.76
2022-10-17T21:21:50.165Z,74.25
2022-10-17T21:24:53.943Z,75.35
2022-10-17T21:27:56.376Z,74.22
2022-10-17T21:31:11.391Z,74.73
2022-10-17T21:34:15.772Z,74.19
2022-10-17T21:37:18.275Z,76.23
2022-10-17T21:40:22.039Z,76.20
2022-10-17T21:43:24.912Z,78.08
2022-10-17T21:46:27.884Z,77.08
2022-10-17T21:49:30.488Z,73.69
2022-10-17T21:52:33.272Z,74.53
2022-10-17T21:55:38.613Z,72.51
2022-10-17T21:58:41.827Z,72.51
2022-10-17T22:01:46.706Z,71.32
2022-10-17T22:04:49.237Z,70.59
2022-10-17T22:07:51.701Z,71.84
2022-10-17T22:10:55.480Z,72.77
2022-10-17T22:14:00.241Z,74.84
2022-10-17T22:17:02.676Z,73.64
2022-10-17T22:20:05.764Z,74.12
2022-10-17T22:23:08.345Z,73.28
2022-10-17T22:26:12.941Z,73.48
2022-10-17T22:29:15.547Z,74.25
2022-10-17T22:32:21.521Z,73.01
2022-10-17T22:35:25.278Z,73.66
2022-10-17T22:38:28.108Z,74.78
2022-10-17T22:41:31.946Z,73.51
2022-10-17T22:44:34.389Z,76.40
2022-10-17T22:47:36.847Z,80.46
2022-10-17T22:50:42.534Z,79.72
2022-10-17T22:53:45.014Z,77.17
2022-10-17T22:56:48.803Z,76.03
2022-10-17T22:59:51.270Z,82.07
2022-10-17T23:02:54.640Z,79.08
2022-10-17T23:05:57.623Z,83.15
2022-10-17T23:09:00.220Z,82.45
2022-10-17T23:12:04.337Z,78.87
2022-10-17T23:15:07.675Z,80.12
2022-10-17T23:18:10.619Z,78.08
2022-10-17T23:21:13.181Z,76.97
2022-10-17T23:24:15.887Z,83.41
2022-10-17T23:27:19.691Z,87.75
2022-10-17T23:30:22.550Z,83.76
2022-10-17T23:33:26.096Z,89.16
2022-10-17T23:36:28.532Z,87.24
2022-10-17T23:39:30.991Z,83.43
2022-10-17T23:42:34.884Z,82.44
2022-10-17T23:45:37.463Z,82.02
2022-10-17T23:48:40.986Z,81.81
2022-10-17T23:51:43.430Z,83.08
2022-10-17T23:54:45.905Z,83.32
2022-10-17T23:57:49.672Z,84.18
